sensor_id;sensor_type;location;lat;lon;timestamp;pressure;altitude;pressure_sealevel;temperature;humidity
56504;BME280;48812;51.606;-0.114;2023-05-17T00:02:18;102036.50;;;18.72;56.52
56504;BME280;48812;51.606;-0.114;2023-05-17T00:04:50;102033.00;;;18.70;56.55
56504;BME280;48812;51.606;-0.114;2023-05-17T00:07:24;102046.38;;;18.70;56.89
56504;BME280;48812;51.606;-0.114;2023-05-17T00:09:56;102038.34;;;18.70;56.56
56504;BME280;48812;51.606;-0.114;2023-05-17T00:12:29;102052.69;;;18.69;56.62
56504;BME280;48812;51.606;-0.114;2023-05-17T00:15:01;102050.91;;;18.68;56.62
56504;BME280;48812;51.606;-0.114;2023-05-17T00:17:33;102042.88;;;18.68;57.55
56504;BME280;48812;51.606;-0.114;2023-05-17T00:20:08;102043.81;;;18.67;56.52
56504;BME280;48812;51.606;-0.114;2023-05-17T00:22:40;102041.16;;;18.67;56.79
56504;BME280;48812;51.606;-0.114;2023-05-17T00:25:14;102042.06;;;18.66;56.53
56504;BME280;48812;51.606;-0.114;2023-05-17T00:27:46;102026.00;;;18.66;56.68
56504;BME280;48812;51.606;-0.114;2023-05-17T00:30:18;102033.22;;;18.64;56.68
56504;BME280;48812;51.606;-0.114;2023-05-17T00:32:50;102041.25;;;18.64;56.98
56504;BME280;48812;51.606;-0.114;2023-05-17T00:35:22;102041.25;;;18.64;56.61
56504;BME280;48812;51.606;-0.114;2023-05-17T00:37:56;102043.97;;;18.63;57.09
56504;BME280;48812;51.606;-0.114;2023-05-17T00:40:28;102037.72;;;18.62;56.79
56504;BME280;48812;51.606;-0.114;2023-05-17T00:43:00;102043.97;;;18.63;57.08
56504;BME280;48812;51.606;-0.114;2023-05-17T00:45:32;102038.66;;;18.61;56.82
56504;BME280;48812;51.606;-0.114;2023-05-17T00:48:06;102039.56;;;18.60;56.79
56504;BME280;48812;51.606;-0.114;2023-05-17T00:50:40;102041.38;;;18.59;57.08
56504;BME280;48812;51.606;-0.114;2023-05-17T00:53:13;102047.66;;;18.58;57.14
56504;BME280;48812;51.606;-0.114;2023-05-17T00:55:47;102044.09;;;18.58;56.98
56504;BME280;48812;51.606;-0.114;2023-05-17T00:58:20;102034.31;;;18.57;57.58
56504;BME280;48812;51.606;-0.114;2023-05-17T01:00:53;102041.47;;;18.56;57.45
56504;BME280;48812;51.606;-0.114;2023-05-17T01:03:26;102045.06;;;18.55;57.41
56504;BME280;48812;51.606;-0.114;2023-05-17T01:05:58;102044.19;;;18.55;56.84
56504;BME280;48812;51.606;-0.114;2023-05-17T01:08:31;102046.88;;;18.55;56.67
56504;BME280;48812;51.606;-0.114;2023-05-17T01:11:12;102045.13;;;18.54;56.71
56504;BME280;48812;51.606;-0.114;2023-05-17T01:16:19;102046.06;;;18.53;57.18
56504;BME280;48812;51.606;-0.114;2023-05-17T01:24:27;102039.88;;;18.51;57.50
56504;BME280;48812;51.606;-0.114;2023-05-17T01:27:01;102035.44;;;18.50;56.99
56504;BME280;48812;51.606;-0.114;2023-05-17T01:29:35;102040.78;;;18.50;56.91
56504;BME280;48812;51.606;-0.114;2023-05-17T01:32:09;102042.59;;;18.49;57.15
56504;BME280;48812;51.606;-0.114;2023-05-17T01:34:42;102041.69;;;18.49;57.75
56504;BME280;48812;51.606;-0.114;2023-05-17T01:37:14;102048.81;;;18.50;56.76
56504;BME280;48812;51.606;-0.114;2023-05-17T01:39:46;102049.75;;;18.49;57.18
56504;BME280;48812;51.606;-0.114;2023-05-17T01:42:22;102048.00;;;18.48;56.97
56504;BME280;48812;51.606;-0.114;2023-05-17T01:47:38;102040.88;;;18.47;57.22
56504;BME280;48812;51.606;-0.114;2023-05-17T01:50:14;102038.22;;;18.47;57.67
56504;BME280;48812;51.606;-0.114;2023-05-17T01:52:52;102039.13;;;18.46;56.80
56504;BME280;48812;51.606;-0.114;2023-05-17T01:58:11;102035.63;;;18.43;57.07
56504;BME280;48812;51.606;-0.114;2023-05-17T02:00:44;102039.25;;;18.42;56.63
56504;BME280;48812;51.606;-0.114;2023-05-17T02:03:18;102035.66;;;18.42;56.62
56504;BME280;48812;51.606;-0.114;2023-05-17T02:05:54;102041.06;;;18.40;57.19
56504;BME280;48812;51.606;-0.114;2023-05-17T02:08:27;102050.00;;;18.41;57.18
56504;BME280;48812;51.606;-0.114;2023-05-17T02:10:59;102057.13;;;18.40;57.69
56504;BME280;48812;51.606;-0.114;2023-05-17T02:13:49;102059.84;;;18.39;57.05
56504;BME280;48812;51.606;-0.114;2023-05-17T02:16:21;102059.84;;;18.39;56.99
56504;BME280;48812;51.606;-0.114;2023-05-17T02:18:53;102065.22;;;18.39;57.84
56504;BME280;48812;51.606;-0.114;2023-05-17T02:21:27;102073.28;;;18.37;57.10
56504;BME280;48812;51.606;-0.114;2023-05-17T02:24:00;102069.75;;;18.37;57.44
56504;BME280;48812;51.606;-0.114;2023-05-17T02:26:32;102075.16;;;18.35;56.96
56504;BME280;48812;51.606;-0.114;2023-05-17T02:29:06;102078.72;;;18.34;57.27
56504;BME280;48812;51.606;-0.114;2023-05-17T02:31:38;102073.38;;;18.34;57.40
56504;BME280;48812;51.606;-0.114;2023-05-17T02:34:11;102076.97;;;18.33;57.03
56504;BME280;48812;51.606;-0.114;2023-05-17T02:36:43;102083.22;;;18.32;56.98
56504;BME280;48812;51.606;-0.114;2023-05-17T02:39:16;102076.13;;;18.31;57.21
56504;BME280;48812;51.606;-0.114;2023-05-17T02:41:49;102078.81;;;18.31;57.45
56504;BME280;48812;51.606;-0.114;2023-05-17T02:44:21;102075.25;;;18.31;57.08
56504;BME280;48812;51.606;-0.114;2023-05-17T02:46:53;102065.47;;;18.30;56.98
56504;BME280;48812;51.606;-0.114;2023-05-17T02:49:25;102080.63;;;18.29;57.37
56504;BME280;48812;51.606;-0.114;2023-05-17T02:51:58;102069.94;;;18.29;57.39
56504;BME280;48812;51.606;-0.114;2023-05-17T02:54:31;102067.31;;;18.28;57.39
56504;BME280;48812;51.606;-0.114;2023-05-17T02:57:04;102075.41;;;18.26;57.30
56504;BME280;48812;51.606;-0.114;2023-05-17T02:59:37;102072.72;;;18.26;57.38
56504;BME280;48812;51.606;-0.114;2023-05-17T03:02:09;102076.31;;;18.25;57.28
56504;BME280;48812;51.606;-0.114;2023-05-17T03:04:42;102078.13;;;18.24;57.36
56504;BME280;48812;51.606;-0.114;2023-05-17T03:07:14;102082.56;;;18.24;56.56
56504;BME280;48812;51.606;-0.114;2023-05-17T03:09:47;102090.66;;;18.22;57.42
56504;BME280;48812;51.606;-0.114;2023-05-17T03:12:19;102081.75;;;18.22;57.34
56504;BME280;48812;51.606;-0.114;2023-05-17T03:14:51;102087.09;;;18.22;57.41
56504;BME280;48812;51.606;-0.114;2023-05-17T03:17:25;102090.69;;;18.21;57.86
56504;BME280;48812;51.606;-0.114;2023-05-17T03:19:58;102086.28;;;18.20;57.88
56504;BME280;48812;51.606;-0.114;2023-05-17T03:22:30;102083.66;;;18.18;57.42
56504;BME280;48812;51.606;-0.114;2023-05-17T03:25:03;102080.06;;;18.19;57.94
56504;BME280;48812;51.606;-0.114;2023-05-17T03:27:37;102085.47;;;18.18;57.75
56504;BME280;48812;51.606;-0.114;2023-05-17T03:30:09;102087.25;;;18.17;57.35
56504;BME280;48812;51.606;-0.114;2023-05-17T03:32:42;102081.00;;;18.17;57.54
56504;BME280;48812;51.606;-0.114;2023-05-17T03:35:14;102088.22;;;18.15;57.66
56504;BME280;48812;51.606;-0.114;2023-05-17T03:37:50;102089.09;;;18.15;57.42
56504;BME280;48812;51.606;-0.114;2023-05-17T03:40:22;102099.78;;;18.15;57.14
56504;BME280;48812;51.606;-0.114;2023-05-17T03:42:55;102091.81;;;18.14;57.39
56504;BME280;48812;51.606;-0.114;2023-05-17T03:45:29;102088.31;;;18.12;57.37
56504;BME280;48812;51.606;-0.114;2023-05-17T03:48:02;102099.00;;;18.12;57.81
56504;BME280;48812;51.606;-0.114;2023-05-17T03:50:34;102098.19;;;18.10;57.14
56504;BME280;48812;51.606;-0.114;2023-05-17T03:53:07;102102.59;;;18.11;57.59
56504;BME280;48812;51.606;-0.114;2023-05-17T03:55:40;102099.97;;;18.09;57.80
56504;BME280;48812;51.606;-0.114;2023-05-17T03:58:12;102104.44;;;18.09;57.14
56504;BME280;48812;51.606;-0.114;2023-05-17T04:00:45;102102.69;;;18.08;57.46
56504;BME280;48812;51.606;-0.114;2023-05-17T04:03:20;102098.28;;;18.06;57.19
56504;BME280;48812;51.606;-0.114;2023-05-17T04:05:59;102105.41;;;18.06;57.87
56504;BME280;48812;51.606;-0.114;2023-05-17T04:08:32;102103.66;;;18.05;57.48
56504;BME280;48812;51.606;-0.114;2023-05-17T04:11:05;102109.94;;;18.04;57.39
56504;BME280;48812;51.606;-0.114;2023-05-17T04:13:54;102113.47;;;18.04;57.11
56504;BME280;48812;51.606;-0.114;2023-05-17T04:16:28;102116.22;;;18.03;57.44
56504;BME280;48812;51.606;-0.114;2023-05-17T04:19:00;102126.03;;;18.02;56.82
56504;BME280;48812;51.606;-0.114;2023-05-17T04:21:34;102118.00;;;18.02;57.45
56504;BME280;48812;51.606;-0.114;2023-05-17T04:24:06;102124.28;;;18.01;57.17
56504;BME280;48812;51.606;-0.114;2023-05-17T04:26:39;102118.94;;;18.01;57.52
56504;BME280;48812;51.606;-0.114;2023-05-17T04:29:12;102121.66;;;18.00;57.14
56504;BME280;48812;51.606;-0.114;2023-05-17T04:31:44;102121.66;;;18.00;57.48
56504;BME280;48812;51.606;-0.114;2023-05-17T04:34:21;102133.22;;;18.00;57.47
56504;BME280;48812;51.606;-0.114;2023-05-17T04:36:55;102132.34;;;18.00;57.03
56504;BME280;48812;51.606;-0.114;2023-05-17T04:39:28;102132.41;;;17.98;57.43
56504;BME280;48812;51.606;-0.114;2023-05-17T04:42:02;102143.09;;;17.98;57.08
56504;BME280;48812;51.606;-0.114;2023-05-17T04:44:39;102139.53;;;17.98;57.89
56504;BME280;48812;51.606;-0.114;2023-05-17T04:47:12;102146.69;;;17.97;57.56
56504;BME280;48812;51.606;-0.114;2023-05-17T04:49:45;102144.00;;;17.97;57.58
56504;BME280;48812;51.606;-0.114;2023-05-17T04:52:17;102142.25;;;17.96;57.96
56504;BME280;48812;51.606;-0.114;2023-05-17T04:54:50;102150.28;;;17.96;57.20
56504;BME280;48812;51.606;-0.114;2023-05-17T04:57:24;102145.84;;;17.95;57.11
56504;BME280;48812;51.606;-0.114;2023-05-17T05:00:01;102151.22;;;17.95;57.38
56504;BME280;48812;51.606;-0.114;2023-05-17T05:02:36;102154.75;;;17.96;57.68
56504;BME280;48812;51.606;-0.114;2023-05-17T05:05:10;102167.25;;;17.95;57.27
56504;BME280;48812;51.606;-0.114;2023-05-17T05:07:43;102166.41;;;17.95;57.20
56504;BME280;48812;51.606;-0.114;2023-05-17T05:10:17;102172.63;;;17.95;57.83
56504;BME280;48812;51.606;-0.114;2023-05-17T05:12:51;102160.16;;;17.94;56.74
56504;BME280;48812;51.606;-0.114;2023-05-17T05:15:23;102162.81;;;17.94;58.08
56504;BME280;48812;51.606;-0.114;2023-05-17T05:18:02;102160.16;;;17.94;57.76
56504;BME280;48812;51.606;-0.114;2023-05-17T05:20:35;102155.72;;;17.93;57.00
56504;BME280;48812;51.606;-0.114;2023-05-17T05:23:09;102162.84;;;17.93;57.71
56504;BME280;48812;51.606;-0.114;2023-05-17T05:25:42;102167.31;;;17.94;57.21
56504;BME280;48812;51.606;-0.114;2023-05-17T05:28:15;102167.31;;;17.94;57.17
56504;BME280;48812;51.606;-0.114;2023-05-17T05:30:49;102173.56;;;17.93;57.39
56504;BME280;48812;51.606;-0.114;2023-05-17T05:33:23;102174.47;;;17.93;56.98
56504;BME280;48812;51.606;-0.114;2023-05-17T05:35:55;102170.88;;;17.93;57.68
56504;BME280;48812;51.606;-0.114;2023-05-17T05:38:31;102172.69;;;17.92;57.66
56504;BME280;48812;51.606;-0.114;2023-05-17T05:41:03;102178.03;;;17.92;56.78
56504;BME280;48812;51.606;-0.114;2023-05-17T05:43:35;102185.22;;;17.92;57.81
56504;BME280;48812;51.606;-0.114;2023-05-17T05:46:08;102185.25;;;17.90;56.93
56504;BME280;48812;51.606;-0.114;2023-05-17T05:48:40;102192.34;;;17.91;57.19
56504;BME280;48812;51.606;-0.114;2023-05-17T05:51:13;102193.28;;;17.90;57.24
56504;BME280;48812;51.606;-0.114;2023-05-17T05:53:47;102195.94;;;17.90;57.63
56504;BME280;48812;51.606;-0.114;2023-05-17T05:56:19;102204.88;;;17.89;57.88
56504;BME280;48812;51.606;-0.114;2023-05-17T05:58:53;102204.88;;;17.89;57.28
56504;BME280;48812;51.606;-0.114;2023-05-17T06:01:25;102199.53;;;17.89;57.66
56504;BME280;48812;51.606;-0.114;2023-05-17T06:04:01;102211.13;;;17.88;57.85
56504;BME280;48812;51.606;-0.114;2023-05-17T06:06:34;102197.75;;;17.88;57.17
56504;BME280;48812;51.606;-0.114;2023-05-17T06:09:07;102200.50;;;17.86;57.47
56504;BME280;48812;51.606;-0.114;2023-05-17T06:11:43;102202.25;;;17.87;57.30
56504;BME280;48812;51.606;-0.114;2023-05-17T06:14:16;102201.38;;;17.87;57.79
56504;BME280;48812;51.606;-0.114;2023-05-17T06:16:52;102198.69;;;17.87;57.45
56504;BME280;48812;51.606;-0.114;2023-05-17T06:19:24;102197.88;;;17.85;57.92
56504;BME280;48812;51.606;-0.114;2023-05-17T06:21:57;102197.88;;;17.85;57.28
56504;BME280;48812;51.606;-0.114;2023-05-17T06:24:29;102209.44;;;17.85;57.03
56504;BME280;48812;51.606;-0.114;2023-05-17T06:27:01;102198.75;;;17.85;57.01
56504;BME280;48812;51.606;-0.114;2023-05-17T06:29:33;102199.59;;;17.86;57.22
56504;BME280;48812;51.606;-0.114;2023-05-17T06:32:06;102196.94;;;17.86;57.00
56504;BME280;48812;51.606;-0.114;2023-05-17T06:34:38;102199.59;;;17.86;57.61
56504;BME280;48812;51.606;-0.114;2023-05-17T06:37:10;102201.38;;;17.87;58.01
56504;BME280;48812;51.606;-0.114;2023-05-17T06:39:43;102203.19;;;17.86;56.92
56504;BME280;48812;51.606;-0.114;2023-05-17T06:42:31;102209.41;;;17.87;57.87
56504;BME280;48812;51.606;-0.114;2023-05-17T06:45:03;102220.06;;;17.88;57.11
56504;BME280;48812;51.606;-0.114;2023-05-17T06:47:35;102214.75;;;17.87;57.69
56504;BME280;48812;51.606;-0.114;2023-05-17T06:50:08;102222.78;;;17.87;57.41
56504;BME280;48812;51.606;-0.114;2023-05-17T06:52:40;102223.66;;;17.87;57.67
56504;BME280;48812;51.606;-0.114;2023-05-17T06:55:12;102226.38;;;17.86;57.45
56504;BME280;48812;51.606;-0.114;2023-05-17T06:57:45;102227.31;;;17.85;57.76
56504;BME280;48812;51.606;-0.114;2023-05-17T07:00:17;102235.38;;;17.83;57.43
56504;BME280;48812;51.606;-0.114;2023-05-17T07:02:50;102231.78;;;17.83;57.72
56504;BME280;48812;51.606;-0.114;2023-05-17T07:05:22;102230.97;;;17.81;57.56
56504;BME280;48812;51.606;-0.114;2023-05-17T07:07:56;102233.63;;;17.81;57.73
56504;BME280;48812;51.606;-0.114;2023-05-17T07:10:28;102235.47;;;17.79;57.67
56504;BME280;48812;51.606;-0.114;2023-05-17T07:13:03;102231.97;;;17.77;57.47
56504;BME280;48812;51.606;-0.114;2023-05-17T07:15:35;102234.63;;;17.77;57.20
56504;BME280;48812;51.606;-0.114;2023-05-17T07:18:07;102239.09;;;17.76;57.11
56504;BME280;48812;51.606;-0.114;2023-05-17T07:20:41;102244.44;;;17.76;57.79
56504;BME280;48812;51.606;-0.114;2023-05-17T07:23:13;102232.03;;;17.74;57.07
56504;BME280;48812;51.606;-0.114;2023-05-17T07:25:45;102236.50;;;17.73;56.93
56504;BME280;48812;51.606;-0.114;2023-05-17T07:28:17;102229.38;;;17.74;57.32
56504;BME280;48812;51.606;-0.114;2023-05-17T07:30:50;102243.59;;;17.74;56.87
56504;BME280;48812;51.606;-0.114;2023-05-17T07:33:22;102236.44;;;17.75;56.87
56504;BME280;48812;51.606;-0.114;2023-05-17T07:35:56;102242.66;;;17.77;56.92
56504;BME280;48812;51.606;-0.114;2023-05-17T07:38:29;102245.31;;;17.78;56.80
56504;BME280;48812;51.606;-0.114;2023-05-17T07:41:01;102251.53;;;17.79;57.16
56504;BME280;48812;51.606;-0.114;2023-05-17T07:43:35;102247.03;;;17.79;56.64
56504;BME280;48812;51.606;-0.114;2023-05-17T07:46:08;102250.59;;;17.80;56.90
56504;BME280;48812;51.606;-0.114;2023-05-17T07:48:40;102249.69;;;17.81;56.72
56504;BME280;48812;51.606;-0.114;2023-05-17T07:51:13;102257.66;;;17.82;57.61
56504;BME280;48812;51.606;-0.114;2023-05-17T07:53:45;102252.31;;;17.82;56.84
56504;BME280;48812;51.606;-0.114;2023-05-17T07:56:17;102249.59;;;17.84;57.14
56504;BME280;48812;51.606;-0.114;2023-05-17T07:58:49;102246.03;;;17.85;56.60
56504;BME280;48812;51.606;-0.114;2023-05-17T08:01:22;102251.38;;;17.85;57.19
56504;BME280;48812;51.606;-0.114;2023-05-17T08:03:54;102250.44;;;17.86;56.87
56504;BME280;48812;51.606;-0.114;2023-05-17T08:06:28;102249.53;;;17.87;57.43
56504;BME280;48812;51.606;-0.114;2023-05-17T08:09:00;102250.41;;;17.87;56.75
56504;BME280;48812;51.606;-0.114;2023-05-17T08:11:33;102246.88;;;17.87;57.33
56504;BME280;48812;51.606;-0.114;2023-05-17T08:14:06;102245.94;;;17.88;56.96
56504;BME280;48812;51.606;-0.114;2023-05-17T08:16:38;102241.47;;;17.88;56.59
56504;BME280;48812;51.606;-0.114;2023-05-17T08:19:11;102253.91;;;17.90;57.26
56504;BME280;48812;51.606;-0.114;2023-05-17T08:21:44;102258.41;;;17.89;56.54
56504;BME280;48812;51.606;-0.114;2023-05-17T08:24:17;102245.03;;;17.89;56.86
56504;BME280;48812;51.606;-0.114;2023-05-17T08:26:49;102245.84;;;17.91;57.02
56504;BME280;48812;51.606;-0.114;2023-05-17T08:29:22;102238.72;;;17.92;57.16
56504;BME280;48812;51.606;-0.114;2023-05-17T08:31:54;102252.09;;;17.92;57.15
56504;BME280;48812;51.606;-0.114;2023-05-17T08:34:26;102252.06;;;17.93;56.78
56504;BME280;48812;51.606;-0.114;2023-05-17T08:36:58;102254.75;;;17.93;56.73
56504;BME280;48812;51.606;-0.114;2023-05-17T08:39:31;102249.38;;;17.93;57.13
56504;BME280;48812;51.606;-0.114;2023-05-17T08:42:06;102245.78;;;17.94;57.36
56504;BME280;48812;51.606;-0.114;2023-05-17T08:44:38;102256.44;;;17.96;56.56
56504;BME280;48812;51.606;-0.114;2023-05-17T08:47:10;102251.09;;;17.96;56.48
56504;BME280;48812;51.606;-0.114;2023-05-17T08:49:43;102244.88;;;17.95;56.92
56504;BME280;48812;51.606;-0.114;2023-05-17T08:52:18;102243.03;;;17.97;56.87
56504;BME280;48812;51.606;-0.114;2023-05-17T08:54:51;102240.34;;;17.97;57.40
56504;BME280;48812;51.606;-0.114;2023-05-17T08:57:24;102246.56;;;17.98;56.69
56504;BME280;48812;51.606;-0.114;2023-05-17T08:59:58;102236.78;;;17.98;57.33
56504;BME280;48812;51.606;-0.114;2023-05-17T09:02:43;102233.16;;;17.99;57.20
56504;BME280;48812;51.606;-0.114;2023-05-17T09:05:15;102233.13;;;18.01;56.68
56504;BME280;48812;51.606;-0.114;2023-05-17T09:07:48;102237.56;;;18.02;57.40
56504;BME280;48812;51.606;-0.114;2023-05-17T09:10:20;102234.84;;;18.03;57.15
56504;BME280;48812;51.606;-0.114;2023-05-17T09:12:53;102234.84;;;18.03;56.96
56504;BME280;48812;51.606;-0.114;2023-05-17T09:15:25;102241.03;;;18.05;57.13
56504;BME280;48812;51.606;-0.114;2023-05-17T09:17:58;102235.69;;;18.05;57.74
56504;BME280;48812;51.606;-0.114;2023-05-17T09:20:31;102233.84;;;18.08;57.23
56504;BME280;48812;51.606;-0.114;2023-05-17T09:23:08;102232.06;;;18.08;57.00
56504;BME280;48812;51.606;-0.114;2023-05-17T09:25:48;102235.56;;;18.10;57.26
56504;BME280;48812;51.606;-0.114;2023-05-17T09:28:20;102228.41;;;18.11;57.32
56504;BME280;48812;51.606;-0.114;2023-05-17T09:30:53;102223.88;;;18.13;57.22
56504;BME280;48812;51.606;-0.114;2023-05-17T09:33:25;102219.44;;;18.13;57.33
56504;BME280;48812;51.606;-0.114;2023-05-17T09:35:57;102217.63;;;18.14;57.26
56504;BME280;48812;51.606;-0.114;2023-05-17T09:38:29;102214.00;;;18.16;57.36
56504;BME280;48812;51.606;-0.114;2023-05-17T09:41:02;102214.00;;;18.16;57.75
56504;BME280;48812;51.606;-0.114;2023-05-17T09:43:34;102214.81;;;18.18;57.29
56504;BME280;48812;51.606;-0.114;2023-05-17T09:46:07;102214.78;;;18.20;57.36
56504;BME280;48812;51.606;-0.114;2023-05-17T09:48:39;102212.94;;;18.22;57.26
56504;BME280;48812;51.606;-0.114;2023-05-17T09:51:11;102211.09;;;18.24;57.43
56504;BME280;48812;51.606;-0.114;2023-05-17T09:53:44;102209.25;;;18.26;57.50
56504;BME280;48812;51.606;-0.114;2023-05-17T09:56:17;102211.91;;;18.28;57.13
56504;BME280;48812;51.606;-0.114;2023-05-17T09:58:50;102210.06;;;18.30;57.29
56504;BME280;48812;51.606;-0.114;2023-05-17T10:01:26;102218.03;;;18.31;57.42
56504;BME280;48812;51.606;-0.114;2023-05-17T10:04:00;102216.19;;;18.33;57.03
56504;BME280;48812;51.606;-0.114;2023-05-17T10:06:33;102221.56;;;18.33;56.94
56504;BME280;48812;51.606;-0.114;2023-05-17T10:09:21;102219.75;;;18.35;57.49
56504;BME280;48812;51.606;-0.114;2023-05-17T10:11:53;102217.88;;;18.37;57.42
56504;BME280;48812;51.606;-0.114;2023-05-17T10:14:29;102220.53;;;18.39;57.73
56504;BME280;48812;51.606;-0.114;2023-05-17T10:17:05;102216.94;;;18.40;57.13
56504;BME280;48812;51.606;-0.114;2023-05-17T10:19:40;102212.44;;;18.40;57.19
56504;BME280;48812;51.606;-0.114;2023-05-17T10:22:13;102210.63;;;18.42;57.75
56504;BME280;48812;51.606;-0.114;2023-05-17T10:24:54;102210.63;;;18.42;57.33
56504;BME280;48812;51.606;-0.114;2023-05-17T10:27:26;102205.34;;;18.39;57.22
56504;BME280;48812;51.606;-0.114;2023-05-17T10:29:59;102206.19;;;18.41;57.21
56504;BME280;48812;51.606;-0.114;2023-05-17T10:32:31;102202.59;;;18.42;57.71
56504;BME280;48812;51.606;-0.114;2023-05-17T10:35:04;102199.03;;;18.42;57.68
56504;BME280;48812;51.606;-0.114;2023-05-17T10:37:43;102201.66;;;18.43;57.59
56504;BME280;48812;51.606;-0.114;2023-05-17T10:40:15;102198.97;;;18.43;57.27
56504;BME280;48812;51.606;-0.114;2023-05-17T10:42:49;102198.06;;;18.45;57.54
56504;BME280;48812;51.606;-0.114;2023-05-17T10:45:23;102192.72;;;18.45;57.29
56504;BME280;48812;51.606;-0.114;2023-05-17T10:47:56;102195.38;;;18.45;57.37
56504;BME280;48812;51.606;-0.114;2023-05-17T10:50:31;102203.41;;;18.45;57.02
56504;BME280;48812;51.606;-0.114;2023-05-17T10:53:04;102195.34;;;18.46;57.16
56504;BME280;48812;51.606;-0.114;2023-05-17T10:55:40;102189.09;;;18.46;57.29
56504;BME280;48812;51.606;-0.114;2023-05-17T10:58:13;102180.16;;;18.47;57.06
56504;BME280;48812;51.606;-0.114;2023-05-17T11:00:49;102180.06;;;18.50;57.54
56504;BME280;48812;51.606;-0.114;2023-05-17T11:03:28;102176.34;;;18.54;57.23
56504;BME280;48812;51.606;-0.114;2023-05-17T11:06:11;102177.09;;;18.60;57.03
56504;BME280;48812;51.606;-0.114;2023-05-17T11:12:03;102177.78;;;18.67;57.59
56504;BME280;48812;51.606;-0.114;2023-05-17T11:14:52;102190.22;;;18.68;57.58
56504;BME280;48812;51.606;-0.114;2023-05-17T11:17:25;102188.44;;;18.69;57.26
56504;BME280;48812;51.606;-0.114;2023-05-17T11:22:35;102195.59;;;18.68;57.22
56504;BME280;48812;51.606;-0.114;2023-05-17T11:25:09;102192.00;;;18.69;57.36
56504;BME280;48812;51.606;-0.114;2023-05-17T11:27:43;102190.22;;;18.68;57.76
56504;BME280;48812;51.606;-0.114;2023-05-17T11:30:16;102192.00;;;18.69;57.43
56504;BME280;48812;51.606;-0.114;2023-05-17T11:32:52;102183.09;;;18.69;57.20
56504;BME280;48812;51.606;-0.114;2023-05-17T11:35:25;102184.88;;;18.68;57.28
56504;BME280;48812;51.606;-0.114;2023-05-17T11:38:16;102187.50;;;18.70;57.04
56504;BME280;48812;51.606;-0.114;2023-05-17T11:40:51;102190.19;;;18.70;57.10
56504;BME280;48812;51.606;-0.114;2023-05-17T11:43:24;102179.44;;;18.71;57.06
56504;BME280;48812;51.606;-0.114;2023-05-17T11:45:58;102179.44;;;18.71;57.34
56504;BME280;48812;51.606;-0.114;2023-05-17T11:48:34;102180.28;;;18.72;57.25
56504;BME280;48812;51.606;-0.114;2023-05-17T11:51:07;102186.50;;;18.74;57.29
56504;BME280;48812;51.606;-0.114;2023-05-17T11:53:40;102183.81;;;18.74;57.17
56504;BME280;48812;51.606;-0.114;2023-05-17T11:56:13;102181.09;;;18.75;57.51
56504;BME280;48812;51.606;-0.114;2023-05-17T11:58:46;102174.75;;;18.78;57.08
56504;BME280;48812;51.606;-0.114;2023-05-17T12:01:21;102171.16;;;18.79;57.59
56504;BME280;48812;51.606;-0.114;2023-05-17T12:03:56;102178.25;;;18.80;57.08
56504;BME280;48812;51.606;-0.114;2023-05-17T12:06:31;102172.81;;;18.83;57.74
56504;BME280;48812;51.606;-0.114;2023-05-17T12:09:06;102168.34;;;18.84;57.67
56504;BME280;48812;51.606;-0.114;2023-05-17T12:11:42;102167.38;;;18.86;57.24
56504;BME280;48812;51.606;-0.114;2023-05-17T12:14:15;102160.16;;;18.88;57.69
56504;BME280;48812;51.606;-0.114;2023-05-17T12:16:52;102158.28;;;18.92;57.71
56504;BME280;48812;51.606;-0.114;2023-05-17T12:19:27;102159.09;;;18.94;57.37
56504;BME280;48812;51.606;-0.114;2023-05-17T12:22:04;102156.38;;;18.95;57.51
56504;BME280;48812;51.606;-0.114;2023-05-17T12:24:38;102159.88;;;18.97;57.31
56504;BME280;48812;51.606;-0.114;2023-05-17T12:27:11;102150.00;;;18.98;57.44
56504;BME280;48812;51.606;-0.114;2023-05-17T12:29:44;102158.06;;;18.98;57.71
56504;BME280;48812;51.606;-0.114;2023-05-17T12:32:16;102152.66;;;19.00;57.28
56504;BME280;48812;51.606;-0.114;2023-05-17T12:34:49;102157.97;;;19.01;57.23
56504;BME280;48812;51.606;-0.114;2023-05-17T12:37:21;102163.28;;;19.03;57.43
56504;BME280;48812;51.606;-0.114;2023-05-17T12:39:53;102158.69;;;19.06;57.56
56504;BME280;48812;51.606;-0.114;2023-05-17T12:42:26;102157.69;;;19.10;57.74
56504;BME280;48812;51.606;-0.114;2023-05-17T12:44:59;102155.81;;;19.12;57.62
56504;BME280;48812;51.606;-0.114;2023-05-17T12:47:31;102156.66;;;19.14;57.78
56504;BME280;48812;51.606;-0.114;2023-05-17T12:50:04;102160.19;;;19.16;57.62
56504;BME280;48812;51.606;-0.114;2023-05-17T12:52:36;102156.56;;;19.17;57.94
56504;BME280;48812;51.606;-0.114;2023-05-17T12:55:11;102156.56;;;19.17;57.96
56504;BME280;48812;51.606;-0.114;2023-05-17T12:57:53;102158.38;;;19.17;57.47
56504;BME280;48812;51.606;-0.114;2023-05-17T13:00:25;102162.84;;;19.16;57.82
56504;BME280;48812;51.606;-0.114;2023-05-17T13:02:57;102157.50;;;19.16;57.84
56504;BME280;48812;51.606;-0.114;2023-05-17T13:05:30;102161.03;;;19.17;57.67
56504;BME280;48812;51.606;-0.114;2023-05-17T13:08:18;102160.19;;;19.16;58.02
56504;BME280;48812;51.606;-0.114;2023-05-17T13:10:50;102163.78;;;19.15;57.85
56504;BME280;48812;51.606;-0.114;2023-05-17T13:13:23;102155.72;;;19.15;57.58
56504;BME280;48812;51.606;-0.114;2023-05-17T13:15:55;102155.72;;;19.15;57.52
56504;BME280;48812;51.606;-0.114;2023-05-17T13:18:29;102149.47;;;19.16;57.61
56504;BME280;48812;51.606;-0.114;2023-05-17T13:21:02;102149.31;;;19.20;58.10
56504;BME280;48812;51.606;-0.114;2023-05-17T13:23:40;102147.50;;;19.22;57.62
56504;BME280;48812;51.606;-0.114;2023-05-17T13:26:13;102151.00;;;19.24;57.50
56504;BME280;48812;51.606;-0.114;2023-05-17T13:28:45;102152.75;;;19.25;57.67
56504;BME280;48812;51.606;-0.114;2023-05-17T13:31:17;102142.91;;;19.25;57.89
56504;BME280;48812;51.606;-0.114;2023-05-17T13:33:50;102142.94;;;19.24;57.99